createdAt,value
2018-02-20T00:00:03.425Z,24.60
2018-02-20T00:02:31.001Z,22.53
2018-02-20T00:04:58.815Z,21.30
2018-02-20T00:07:26.414Z,19.97
2018-02-20T00:09:53.993Z,24.87
2018-02-20T00:12:21.592Z,21.83
2018-02-20T00:14:49.258Z,21.90
2018-02-20T00:17:16.835Z,20.13
2018-02-20T00:19:44.796Z,23.00
2018-02-20T00:22:16.261Z,24.37
2018-02-20T00:24:44.010Z,23.67
2018-02-20T00:27:11.599Z,22.47
2018-02-20T00:29:39.234Z,21.20
2018-02-20T00:32:06.801Z,23.77
2018-02-20T00:34:34.440Z,20.77
2018-02-20T00:37:02.072Z,22.27
2018-02-20T00:39:29.650Z,19.90
2018-02-20T00:41:57.320Z,22.93
2018-02-20T00:44:25.886Z,20.40
2018-02-20T00:46:53.466Z,21.93
2018-02-20T00:49:21.044Z,19.33
2018-02-20T00:51:49.395Z,21.27
2018-02-20T00:54:16.986Z,21.80
2018-02-20T00:56:44.589Z,20.67
2018-02-20T00:59:12.221Z,19.70
2018-02-20T01:01:39.792Z,21.53
2018-02-20T01:04:07.375Z,18.23
2018-02-20T01:06:35.004Z,20.40
2018-02-20T01:09:02.595Z,20.93
2018-02-20T01:11:30.157Z,20.53
2018-02-20T01:13:57.773Z,21.90
2018-02-20T01:16:25.345Z,21.93
2018-02-20T01:18:52.913Z,23.27
2018-02-20T01:21:20.531Z,18.93
2018-02-20T01:23:48.098Z,21.90
2018-02-20T01:26:16.597Z,21.70
2018-02-20T01:28:44.235Z,21.63
2018-02-20T01:31:11.811Z,20.50
2018-02-20T01:33:39.376Z,21.33
2018-02-20T01:36:06.988Z,21.00
2018-02-20T01:38:34.613Z,20.63
2018-02-20T01:41:05.957Z,22.73
2018-02-20T01:43:33.613Z,20.40
2018-02-20T01:46:01.217Z,20.00
2018-02-20T01:48:34.796Z,19.70
2018-02-20T01:51:11.537Z,21.07
2018-02-20T01:53:40.140Z,22.10
2018-02-20T01:56:07.819Z,22.50
2018-02-20T01:58:35.944Z,21.63
2018-02-20T02:01:03.684Z,23.83
2018-02-20T02:03:31.542Z,19.97
2018-02-20T02:05:59.912Z,18.50
2018-02-20T02:08:29.680Z,20.40
2018-02-20T02:10:57.953Z,21.20
2018-02-20T02:13:25.548Z,21.87
2018-02-20T02:15:55.743Z,22.40
2018-02-20T02:18:28.725Z,24.07
2018-02-20T02:20:59.245Z,22.60
2018-02-20T02:23:29.187Z,22.40
2018-02-20T02:25:57.875Z,24.00
2018-02-20T02:28:26.266Z,22.20
2018-02-20T02:30:55.147Z,23.00
2018-02-20T02:33:22.716Z,19.50
2018-02-20T02:35:50.329Z,20.67
2018-02-20T02:38:17.906Z,19.43
2018-02-20T02:40:45.469Z,22.60
2018-02-20T02:43:13.084Z,23.70
2018-02-20T02:45:40.635Z,20.07
2018-02-20T02:48:08.196Z,18.53
2018-02-20T02:50:35.834Z,20.90
2018-02-20T02:53:03.420Z,21.00
2018-02-20T02:55:30.996Z,20.50
2018-02-20T02:57:58.610Z,21.27
2018-02-20T03:00:26.709Z,20.57
2018-02-20T03:02:54.294Z,20.67
2018-02-20T03:05:21.927Z,20.77
2018-02-20T03:07:49.499Z,22.20
2018-02-20T03:10:17.068Z,24.73
2018-02-20T03:12:44.757Z,21.37
2018-02-20T03:15:12.754Z,23.33
2018-02-20T03:17:40.389Z,22.80
2018-02-20T03:20:08.022Z,26.57
2018-02-20T03:22:35.582Z,27.53
2018-02-20T03:25:03.186Z,29.37
2018-02-20T03:27:31.024Z,28.47
2018-02-20T03:29:58.704Z,27.17
2018-02-20T03:32:26.338Z,25.37
2018-02-20T03:34:53.948Z,22.27
2018-02-20T03:37:21.543Z,25.63
2018-02-20T03:39:49.113Z,31.90
2018-02-20T03:42:16.787Z,24.57
2018-02-20T03:44:44.358Z,29.90
2018-02-20T03:47:11.932Z,29.63
2018-02-20T03:49:39.542Z,30.40
2018-02-20T03:52:07.111Z,29.83
2018-02-20T03:54:34.689Z,24.77
2018-02-20T03:57:02.557Z,27.50
2018-02-20T03:59:30.146Z,28.97
2018-02-20T04:01:57.714Z,24.43
2018-02-20T04:04:25.329Z,28.43
2018-02-20T04:06:52.883Z,35.33
2018-02-20T04:09:20.448Z,30.97
2018-02-20T04:11:48.084Z,30.63
2018-02-20T04:14:15.715Z,27.83
2018-02-20T04:16:43.285Z,25.50
2018-02-20T04:19:10.916Z,28.17
2018-02-20T04:21:38.472Z,28.70
2018-02-20T04:24:06.059Z,27.53
2018-02-20T04:26:33.717Z,29.07
2018-02-20T04:29:01.355Z,28.53
2018-02-20T04:31:29.556Z,28.23
2018-02-20T04:33:57.195Z,27.23
2018-02-20T04:36:24.845Z,27.63
2018-02-20T04:38:52.486Z,28.20
2018-02-20T04:41:20.114Z,29.47
2018-02-20T04:43:47.678Z,32.93
2018-02-20T04:46:15.251Z,34.80
2018-02-20T04:48:42.884Z,28.53
2018-02-20T04:51:10.461Z,25.63
2018-02-20T04:53:38.027Z,29.73
2018-02-20T04:56:05.723Z,32.60
2018-02-20T04:58:33.333Z,33.43
2018-02-20T05:01:00.969Z,36.73
2018-02-20T05:03:28.601Z,34.50
2018-02-20T05:05:56.161Z,36.13
2018-02-20T05:08:23.806Z,35.23
2018-02-20T05:10:51.428Z,29.57
2018-02-20T05:13:19.017Z,34.43
2018-02-20T05:15:46.614Z,33.80
2018-02-20T05:18:14.242Z,34.53
2018-02-20T05:20:41.812Z,39.67
2018-02-20T05:23:09.552Z,35.97
2018-02-20T05:25:37.642Z,31.57
2018-02-20T05:28:05.235Z,41.23
2018-02-20T05:30:32.871Z,37.70
2018-02-20T05:33:00.729Z,34.27
2018-02-20T05:35:28.312Z,39.57
2018-02-20T05:37:55.877Z,35.23
2018-02-20T05:40:23.520Z,33.40
2018-02-20T05:42:51.094Z,37.57
2018-02-20T05:45:18.656Z,33.10
2018-02-20T05:47:47.143Z,34.30
2018-02-20T05:50:14.704Z,32.40
2018-02-20T05:52:43.046Z,32.30
2018-02-20T05:55:10.671Z,33.97
2018-02-20T05:57:38.268Z,33.20
2018-02-20T06:00:05.826Z,29.83
2018-02-20T06:02:33.452Z,37.83
2018-02-20T06:05:01.025Z,28.40
2018-02-20T06:07:28.670Z,27.83
2018-02-20T06:09:56.373Z,24.33
2018-02-20T06:12:23.934Z,25.37
2018-02-20T06:14:51.648Z,25.07
2018-02-20T06:17:19.269Z,30.17
2018-02-20T06:19:46.873Z,26.57
2018-02-20T06:22:14.450Z,20.90
2018-02-20T06:24:42.140Z,21.87
2018-02-20T06:27:09.773Z,19.50
2018-02-20T06:29:37.375Z,19.17
2018-02-20T06:32:05.104Z,16.27
2018-02-20T06:34:32.850Z,18.73
2018-02-20T06:37:00.517Z,21.47
2018-02-20T06:39:28.184Z,18.43
2018-02-20T06:41:55.756Z,20.40
2018-02-20T06:44:23.415Z,19.70
2018-02-20T06:46:51.051Z,18.13
2018-02-20T06:49:18.634Z,20.43
2018-02-20T06:51:46.264Z,19.60
2018-02-20T06:54:13.949Z,17.97
2018-02-20T06:56:41.518Z,15.40
2018-02-20T06:59:09.092Z,19.33
2018-02-20T07:01:36.730Z,17.43
2018-02-20T07:04:04.342Z,18.17
2018-02-20T07:06:31.938Z,19.30
2018-02-20T07:08:59.573Z,16.57
2018-02-20T07:11:27.200Z,18.97
2018-02-20T07:13:55.585Z,16.70
2018-02-20T07:16:23.211Z,16.37
2018-02-20T07:18:50.791Z,18.27
2018-02-20T07:21:18.429Z,16.27
2018-02-20T07:23:46.060Z,17.17
2018-02-20T07:26:13.656Z,18.03
2018-02-20T07:28:41.334Z,18.27
2018-02-20T07:31:08.979Z,16.20
2018-02-20T07:33:36.549Z,21.30
2018-02-20T07:36:04.286Z,18.07
2018-02-20T07:38:31.902Z,19.10
2018-02-20T07:40:59.471Z,20.63
2018-02-20T07:43:27.055Z,20.73
2018-02-20T07:45:54.680Z,19.50
2018-02-20T07:48:22.284Z,21.70
2018-02-20T07:50:49.937Z,18.10
2018-02-20T07:53:17.573Z,21.07
2018-02-20T07:55:45.146Z,20.93
2018-02-20T07:58:12.749Z,21.60
2018-02-20T08:00:40.412Z,18.97
2018-02-20T08:03:07.994Z,17.07
2018-02-20T08:05:35.587Z,17.27
2018-02-20T08:08:03.215Z,17.27
2018-02-20T08:10:31.243Z,19.93
2018-02-20T08:12:59.803Z,16.27
2018-02-20T08:15:27.445Z,18.23
2018-02-20T08:17:55.008Z,14.00
2018-02-20T08:20:22.654Z,19.60
2018-02-20T08:22:50.339Z,20.93
2018-02-20T08:25:17.937Z,16.50
2018-02-20T08:27:45.594Z,18.77
2018-02-20T08:30:13.221Z,22.87
2018-02-20T08:32:40.815Z,19.93
2018-02-20T08:35:08.467Z,23.50
2018-02-20T08:37:36.253Z,20.37
2018-02-20T08:40:03.837Z,19.13
2018-02-20T08:42:31.440Z,21.70
2018-02-20T08:44:59.086Z,22.67
2018-02-20T08:47:26.722Z,21.53
2018-02-20T08:49:54.312Z,21.80
2018-02-20T08:52:22.810Z,19.73
2018-02-20T08:54:50.434Z,25.27
2018-02-20T08:57:18.014Z,24.10
2018-02-20T08:59:45.661Z,19.97
2018-02-20T09:02:13.252Z,19.60
2018-02-20T09:04:40.830Z,21.20
2018-02-20T09:07:08.611Z,21.13
2018-02-20T09:09:36.213Z,21.10
2018-02-20T09:12:03.806Z,18.20
2018-02-20T09:14:31.494Z,18.13
2018-02-20T09:16:59.086Z,16.20
2018-02-20T09:19:26.924Z,15.60
2018-02-20T09:21:54.715Z,17.47
2018-02-20T09:24:22.287Z,16.57
2018-02-20T09:26:50.051Z,19.30
2018-02-20T09:29:17.907Z,17.87
2018-02-20T09:31:45.505Z,16.40
2018-02-20T09:34:13.161Z,18.60
2018-02-20T09:36:40.822Z,17.53
2018-02-20T09:39:08.504Z,16.27
2018-02-20T09:41:36.062Z,18.13
2018-02-20T09:44:03.753Z,21.50
2018-02-20T09:46:31.313Z,21.50
2018-02-20T09:48:59.225Z,20.43
2018-02-20T09:51:26.922Z,18.20
2018-02-20T09:53:54.489Z,15.70
2018-02-20T09:56:22.066Z,18.97
2018-02-20T09:58:49.699Z,17.03
2018-02-20T10:01:17.345Z,15.60
2018-02-20T10:03:44.989Z,19.97
2018-02-20T10:06:12.622Z,15.90
2018-02-20T10:08:40.219Z,18.10
2018-02-20T10:11:07.804Z,15.47
2018-02-20T10:13:35.419Z,16.90
2018-02-20T10:16:03.019Z,17.83
2018-02-20T10:18:30.596Z,15.50
2018-02-20T10:20:58.246Z,16.23
2018-02-20T10:23:26.575Z,14.20
2018-02-20T10:25:54.136Z,12.20
2018-02-20T10:28:21.774Z,15.00
2018-02-20T10:30:49.352Z,15.80
2018-02-20T10:33:16.923Z,15.50
2018-02-20T10:35:44.793Z,12.77
2018-02-20T10:38:12.376Z,15.33
2018-02-20T10:40:40.082Z,15.43
2018-02-20T10:43:07.771Z,14.37
2018-02-20T10:45:35.342Z,8.90
2018-02-20T10:48:02.918Z,11.50
2018-02-20T10:50:30.525Z,11.83
2018-02-20T10:52:58.162Z,15.10
2018-02-20T10:55:25.758Z,14.57
2018-02-20T10:57:53.389Z,14.23
2018-02-20T11:00:20.956Z,13.90
2018-02-20T11:02:48.555Z,11.87
2018-02-20T11:05:16.194Z,11.00
2018-02-20T11:07:43.775Z,12.87
2018-02-20T11:10:11.360Z,12.17
2018-02-20T11:12:38.979Z,14.20
2018-02-20T11:15:06.618Z,15.90
2018-02-20T11:17:34.220Z,19.07
2018-02-20T11:20:01.874Z,21.57
2018-02-20T11:22:29.967Z,17.10
2018-02-20T11:24:57.926Z,14.73
2018-02-20T11:27:25.778Z,14.67
2018-02-20T11:29:53.358Z,12.60
2018-02-20T11:32:20.929Z,13.53
2018-02-20T11:34:48.705Z,21.00
2018-02-20T11:37:16.272Z,20.97
2018-02-20T11:39:43.910Z,14.07
2018-02-20T11:42:13.534Z,20.80
2018-02-20T11:44:41.110Z,18.43
2018-02-20T11:47:08.675Z,18.13
2018-02-20T11:49:36.394Z,18.50
2018-02-20T11:52:03.965Z,16.10
2018-02-20T11:54:31.538Z,14.43
2018-02-20T11:56:59.178Z,13.13
2018-02-20T11:59:27.654Z,14.10
2018-02-20T12:01:55.228Z,15.63
2018-02-20T12:04:23.110Z,15.50
2018-02-20T12:06:50.682Z,18.33
2018-02-20T12:09:18.317Z,16.70
2018-02-20T12:11:46.004Z,17.10
2018-02-20T12:14:13.564Z,16.23
2018-02-20T12:16:41.151Z,16.33
2018-02-20T12:19:08.789Z,17.03
2018-02-20T12:21:36.384Z,16.50
2018-02-20T12:24:03.966Z,17.57
2018-02-20T12:26:31.565Z,17.77
2018-02-20T12:28:59.149Z,15.57
2018-02-20T12:31:26.787Z,17.80
2018-02-20T12:33:54.433Z,19.70
2018-02-20T12:36:22.087Z,25.77
2018-02-20T12:38:50.981Z,20.90
2018-02-20T12:41:18.894Z,18.70
2018-02-20T12:43:46.598Z,16.67
2018-02-20T12:46:14.156Z,13.60
2018-02-20T12:48:41.777Z,18.67
2018-02-20T12:51:09.359Z,21.93
2018-02-20T12:53:36.944Z,22.60
2018-02-20T12:56:05.355Z,17.50
2018-02-20T12:58:32.916Z,17.40
2018-02-20T13:01:00.492Z,15.53
2018-02-20T13:03:30.062Z,16.70
2018-02-20T13:05:57.720Z,15.00
2018-02-20T13:08:25.783Z,18.73
2018-02-20T13:10:53.419Z,17.30
2018-02-20T13:13:21.098Z,17.97
2018-02-20T13:15:48.676Z,15.87
2018-02-20T13:18:16.324Z,19.60
2018-02-20T13:20:43.906Z,15.57
2018-02-20T13:23:11.494Z,15.23
2018-02-20T13:25:39.133Z,15.70
2018-02-20T13:28:06.697Z,16.97
2018-02-20T13:30:34.360Z,20.33
2018-02-20T13:33:01.989Z,20.37
2018-02-20T13:35:29.554Z,19.70
2018-02-20T13:37:57.128Z,20.77
2018-02-20T13:40:25.352Z,17.83
2018-02-20T13:42:52.948Z,16.33
2018-02-20T13:45:20.778Z,22.77
2018-02-20T13:47:48.785Z,20.27
2018-02-20T13:50:16.370Z,19.23
2018-02-20T13:52:43.946Z,17.73
2018-02-20T13:55:11.600Z,18.63
2018-02-20T13:57:39.239Z,16.70
2018-02-20T14:00:06.819Z,19.13
2018-02-20T14:02:34.454Z,15.67
2018-02-20T14:05:02.024Z,15.10
2018-02-20T14:07:29.602Z,14.37
2018-02-20T14:09:57.248Z,14.20
2018-02-20T14:12:24.834Z,13.83
2018-02-20T14:14:52.420Z,35.07
2018-02-20T14:17:20.056Z,25.43
2018-02-20T14:19:47.653Z,22.83
2018-02-20T14:22:15.246Z,18.67
2018-02-20T14:24:42.893Z,14.60
2018-02-20T14:27:11.313Z,21.57
2018-02-20T14:29:39.135Z,16.87
2018-02-20T14:32:06.812Z,18.83
2018-02-20T14:34:34.386Z,18.17
2018-02-20T14:37:01.966Z,18.30
2018-02-20T14:39:29.656Z,20.27
2018-02-20T14:41:57.318Z,17.23
2018-02-20T14:44:24.899Z,19.67
2018-02-20T14:46:52.617Z,19.53
2018-02-20T14:49:20.198Z,18.10
2018-02-20T14:51:47.786Z,17.57
2018-02-20T14:54:15.470Z,16.07
2018-02-20T14:56:43.143Z,17.17
2018-02-20T14:59:10.748Z,16.50
2018-02-20T15:01:38.593Z,14.80
2018-02-20T15:04:06.170Z,17.07
2018-02-20T15:06:33.810Z,16.57
2018-02-20T15:09:01.537Z,17.23
2018-02-20T15:11:29.104Z,15.67
2018-02-20T15:13:56.721Z,18.23
2018-02-20T15:16:24.372Z,18.50
2018-02-20T15:18:51.974Z,17.53
2018-02-20T15:21:19.568Z,16.43
2018-02-20T15:23:47.248Z,17.03
2018-02-20T15:26:14.828Z,14.10
2018-02-20T15:28:42.427Z,13.93
2018-02-20T15:31:10.090Z,15.97
2018-02-20T15:33:37.663Z,14.30
2018-02-20T15:36:05.249Z,15.03
2018-02-20T15:38:33.110Z,16.70
2018-02-20T15:41:00.669Z,15.90
2018-02-20T15:43:28.232Z,16.97
2018-02-20T15:45:55.879Z,15.13
2018-02-20T15:48:23.566Z,19.60
2018-02-20T15:50:51.172Z,17.97
2018-02-20T15:53:18.842Z,17.67
2018-02-20T15:55:46.483Z,21.80
2018-02-20T15:58:14.129Z,26.33
2018-02-20T16:00:41.819Z,33.30
2018-02-20T16:03:09.395Z,18.87
2018-02-20T16:05:36.975Z,24.73
2018-02-20T16:08:04.659Z,21.37
2018-02-20T16:10:32.243Z,25.93
2018-02-20T16:12:59.805Z,22.60
2018-02-20T16:15:27.478Z,21.47
2018-02-20T16:17:55.065Z,26.47
2018-02-20T16:20:22.638Z,28.57
2018-02-20T16:22:50.260Z,27.70
2018-02-20T16:25:17.894Z,26.83
2018-02-20T16:27:45.562Z,25.97
2018-02-20T16:30:13.179Z,24.80
2018-02-20T16:32:40.744Z,31.23
2018-02-20T16:35:08.374Z,24.90
2018-02-20T16:37:36.275Z,27.10
2018-02-20T16:40:03.885Z,34.23
2018-02-20T16:42:31.519Z,34.57
2018-02-20T16:44:59.192Z,29.90
2018-02-20T16:47:26.794Z,35.87
2018-02-20T16:49:55.299Z,31.37
2018-02-20T16:52:22.897Z,29.63
2018-02-20T16:54:50.458Z,32.67
2018-02-20T16:57:18.086Z,39.93
2018-02-20T16:59:45.738Z,30.50
2018-02-20T17:02:13.297Z,38.63
2018-02-20T17:04:40.867Z,35.97
2018-02-20T17:07:08.494Z,35.50
2018-02-20T17:09:36.127Z,35.50
2018-02-20T17:12:03.701Z,39.80
2018-02-20T17:14:31.335Z,34.10
2018-02-20T17:16:58.906Z,30.63
2018-02-20T17:19:26.479Z,33.47
2018-02-20T17:21:54.106Z,33.43
2018-02-20T17:24:21.889Z,33.47
2018-02-20T17:26:49.538Z,31.20
2018-02-20T17:29:17.231Z,30.57
2018-02-20T17:31:44.785Z,30.20
2018-02-20T17:34:12.358Z,30.77
2018-02-20T17:36:40.504Z,32.43
2018-02-20T17:39:08.489Z,34.63
2018-02-20T17:41:36.070Z,36.53
2018-02-20T17:44:03.889Z,33.03
2018-02-20T17:46:31.469Z,37.20
2018-02-20T17:48:59.114Z,31.20
2018-02-20T17:51:26.855Z,30.20
2018-02-20T17:53:54.410Z,31.20
2018-02-20T17:56:21.984Z,34.07
2018-02-20T17:58:49.632Z,33.13
2018-02-20T18:01:17.202Z,34.80
2018-02-20T18:03:44.886Z,31.80
2018-02-20T18:06:12.889Z,30.97
2018-02-20T18:08:40.468Z,28.97
2018-02-20T18:11:08.054Z,31.97
2018-02-20T18:13:35.710Z,35.67
2018-02-20T18:16:03.292Z,35.37
2018-02-20T18:18:30.867Z,33.77
2018-02-20T18:20:58.829Z,37.50
2018-02-20T18:23:26.384Z,28.60
2018-02-20T18:25:54.042Z,33.43
2018-02-20T18:28:21.680Z,38.03
2018-02-20T18:30:49.253Z,39.53
2018-02-20T18:33:16.828Z,35.40
2018-02-20T18:35:44.446Z,31.93
2018-02-20T18:38:12.975Z,34.07
2018-02-20T18:40:40.712Z,33.20
2018-02-20T18:43:08.353Z,35.50
2018-02-20T18:45:35.916Z,35.47
2018-02-20T18:48:03.497Z,38.40
2018-02-20T18:50:31.114Z,37.17
2018-02-20T18:52:58.810Z,36.27
2018-02-20T18:55:26.382Z,37.20
2018-02-20T18:57:54.370Z,37.90
2018-02-20T19:00:21.943Z,37.07
2018-02-20T19:02:49.496Z,34.53
2018-02-20T19:05:17.285Z,33.93
2018-02-20T19:07:44.858Z,31.70
2018-02-20T19:10:12.448Z,32.43
2018-02-20T19:12:40.073Z,30.23
2018-02-20T19:15:07.662Z,30.97
2018-02-20T19:17:35.250Z,31.93
2018-02-20T19:20:03.401Z,34.63
2018-02-20T19:22:30.978Z,31.47
2018-02-20T19:24:59.072Z,33.93
2018-02-20T19:27:26.701Z,32.07
2018-02-20T19:29:54.258Z,31.47
2018-02-20T19:32:21.818Z,38.30
2018-02-20T19:34:49.501Z,35.87
2018-02-20T19:37:17.080Z,38.90
2018-02-20T19:39:44.709Z,33.03
2018-02-20T19:42:12.341Z,34.23
2018-02-20T19:44:39.906Z,35.87
2018-02-20T19:47:08.139Z,31.47
2018-02-20T19:49:35.791Z,31.63
2018-02-20T19:52:03.371Z,29.60
2018-02-20T19:54:31.801Z,33.73
2018-02-20T19:56:59.430Z,34.57
2018-02-20T19:59:27.021Z,30.33
2018-02-20T20:01:54.608Z,31.33
2018-02-20T20:04:22.238Z,30.03
2018-02-20T20:06:49.816Z,31.53
2018-02-20T20:09:17.463Z,30.63
2018-02-20T20:11:45.096Z,28.47
2018-02-20T20:14:12.685Z,33.90
2018-02-20T20:16:40.363Z,33.80
2018-02-20T20:19:08.116Z,35.07
2018-02-20T20:21:35.714Z,32.93
2018-02-20T20:24:03.283Z,31.33
2018-02-20T20:26:30.887Z,32.60
2018-02-20T20:28:58.473Z,32.77
2018-02-20T20:31:26.057Z,29.13
2018-02-20T20:33:53.690Z,37.60
2018-02-20T20:36:21.272Z,33.33
2018-02-20T20:38:48.838Z,37.97
2018-02-20T20:41:16.728Z,30.07
2018-02-20T20:43:49.245Z,33.13
2018-02-20T20:46:16.879Z,32.03
2018-02-20T20:48:44.642Z,29.93
2018-02-20T20:51:12.205Z,31.50
2018-02-20T20:53:39.828Z,32.27
2018-02-20T20:56:07.612Z,32.50
2018-02-20T20:58:35.195Z,28.03
2018-02-20T21:01:02.834Z,30.57
2018-02-20T21:03:30.462Z,28.53
2018-02-20T21:05:58.025Z,27.03
2018-02-20T21:08:29.258Z,32.10
2018-02-20T21:10:56.833Z,30.30
2018-02-20T21:13:24.393Z,26.00
2018-02-20T21:15:52.035Z,28.00
2018-02-20T21:18:19.643Z,28.00
2018-02-20T21:20:47.218Z,31.57
2018-02-20T21:23:15.180Z,38.60
2018-02-20T21:25:42.743Z,29.53
2018-02-20T21:28:10.805Z,28.10
2018-02-20T21:30:38.443Z,27.87
2018-02-20T21:33:06.070Z,31.17
2018-02-20T21:35:33.646Z,26.00
2018-02-20T21:38:01.276Z,24.07
2018-02-20T21:40:28.874Z,29.23
2018-02-20T21:42:56.427Z,30.87
2018-02-20T21:45:24.302Z,27.07
2018-02-20T21:47:51.873Z,27.90
2018-02-20T21:50:19.441Z,28.23
2018-02-20T21:52:47.095Z,29.47
2018-02-20T21:55:14.667Z,27.87
2018-02-20T21:57:43.175Z,27.57
2018-02-20T22:00:10.839Z,28.47
2018-02-20T22:02:38.408Z,27.27
2018-02-20T22:05:05.990Z,29.40
2018-02-20T22:07:33.634Z,28.10
2018-02-20T22:10:03.371Z,26.57
2018-02-20T22:12:30.955Z,27.30
2018-02-20T22:14:58.631Z,27.83
2018-02-20T22:17:26.294Z,27.03
2018-02-20T22:19:53.872Z,25.43
2018-02-20T22:22:21.538Z,29.40
2018-02-20T22:24:49.100Z,23.90
2018-02-20T22:27:16.690Z,29.13
2018-02-20T22:29:44.714Z,29.13
2018-02-20T22:32:12.315Z,29.07
2018-02-20T22:34:39.893Z,26.07
2018-02-20T22:37:07.626Z,27.17
2018-02-20T22:39:35.194Z,27.03
2018-02-20T22:42:02.830Z,29.77
2018-02-20T22:44:30.526Z,24.90
2018-02-20T22:46:58.165Z,32.13
2018-02-20T22:49:25.754Z,30.33
2018-02-20T22:51:53.650Z,24.93
2018-02-20T22:54:21.278Z,26.37
2018-02-20T22:56:48.842Z,32.97
2018-02-20T22:59:17.160Z,28.53
2018-02-20T23:01:44.836Z,29.27
2018-02-20T23:04:12.423Z,27.37
2018-02-20T23:06:40.056Z,30.53
2018-02-20T23:09:07.854Z,29.10
2018-02-20T23:11:47.236Z,30.83
2018-02-20T23:14:14.792Z,27.53
2018-02-20T23:16:42.352Z,31.53
2018-02-20T23:19:09.986Z,31.00
2018-02-20T23:21:37.549Z,30.87
2018-02-20T23:24:05.333Z,28.37
2018-02-20T23:26:32.948Z,29.40
2018-02-20T23:29:00.513Z,31.67
2018-02-20T23:31:28.101Z,28.40
2018-02-20T23:33:55.722Z,28.33
2018-02-20T23:36:23.282Z,25.17
2018-02-20T23:38:50.843Z,29.97
2018-02-20T23:41:18.465Z,26.73
2018-02-20T23:43:46.028Z,22.70
2018-02-20T23:46:13.616Z,25.83
2018-02-20T23:48:41.593Z,26.10
2018-02-20T23:51:15.149Z,27.67
2018-02-20T23:53:43.112Z,27.60
2018-02-20T23:56:10.703Z,23.60
2018-02-20T23:58:38.269Z,23.20
